New Baltimore, Virginia
Current Conditions -  °F | °C
As of 7:50 PM on Tuesday 21 Oct 2014 (Local Time) from KHEF Reporting Station
Light Rain Light Rain  
Wind Chill: 54°   Ceiling: 7000
Heat Index: 54°   Visibility: 10mi
Dew Point: 54°   Wind: 7mph
Humidity: 100%   Direction: 290°WNW
Pressure: 29.9"   Gusts: NA
Location:  38.754°N, 77.7224°W
Report Text: KHEF 212350Z 29006KT 10SM -RA OVC070 12/12 A2990
Loading
Personal Weather Stations






























Interactive Weather Map
Tropical Storm Tracking
New forecast layout! Learn more

10-Day Weather Forecast

Advertisements
Track Severe Weather on mobile